sensor_id;sensor_type;location;lat;lon;timestamp;P1;durP1;ratioP1;P2;durP2;ratioP2
21569;SDS011;57598;50.888;4.746;2023-02-28T00:01:37;29.63;;;27.92;;
21569;SDS011;57598;50.888;4.746;2023-02-28T00:04:05;29.95;;;28.25;;
21569;SDS011;57598;50.888;4.746;2023-02-28T00:06:34;30.85;;;29.05;;
21569;SDS011;57598;50.888;4.746;2023-02-28T00:09:01;28.92;;;27.23;;
21569;SDS011;57598;50.888;4.746;2023-02-28T00:11:30;28.70;;;27.08;;
21569;SDS011;57598;50.888;4.746;2023-02-28T00:13:57;28.80;;;27.10;;
21569;SDS011;57598;50.888;4.746;2023-02-28T00:16:25;30.05;;;28.25;;
21569;SDS011;57598;50.888;4.746;2023-02-28T00:18:54;29.02;;;27.33;;
21569;SDS011;57598;50.888;4.746;2023-02-28T00:21:21;32.45;;;30.52;;
21569;SDS011;57598;50.888;4.746;2023-02-28T00:23:49;33.03;;;30.92;;
21569;SDS011;57598;50.888;4.746;2023-02-28T00:26:16;29.52;;;27.83;;
21569;SDS011;57598;50.888;4.746;2023-02-28T00:28:44;29.77;;;28.08;;
21569;SDS011;57598;50.888;4.746;2023-02-28T00:31:11;30.67;;;28.92;;
21569;SDS011;57598;50.888;4.746;2023-02-28T00:33:38;30.50;;;28.80;;
21569;SDS011;57598;50.888;4.746;2023-02-28T00:36:09;34.15;;;32.15;;
21569;SDS011;57598;50.888;4.746;2023-02-28T00:38:36;29.75;;;28.05;;
21569;SDS011;57598;50.888;4.746;2023-02-28T00:41:04;29.70;;;28.00;;
21569;SDS011;57598;50.888;4.746;2023-02-28T00:43:32;29.75;;;28.05;;
21569;SDS011;57598;50.888;4.746;2023-02-28T00:45:59;30.05;;;28.35;;
21569;SDS011;57598;50.888;4.746;2023-02-28T00:48:27;29.65;;;27.95;;
21569;SDS011;57598;50.888;4.746;2023-02-28T00:50:54;30.05;;;28.35;;
21569;SDS011;57598;50.888;4.746;2023-02-28T00:53:23;29.63;;;27.92;;
21569;SDS011;57598;50.888;4.746;2023-02-28T00:55:51;29.70;;;28.00;;
21569;SDS011;57598;50.888;4.746;2023-02-28T00:58:18;29.67;;;27.98;;
21569;SDS011;57598;50.888;4.746;2023-02-28T01:00:45;29.13;;;27.42;;
21569;SDS011;57598;50.888;4.746;2023-02-28T01:03:13;29.25;;;27.55;;
21569;SDS011;57598;50.888;4.746;2023-02-28T01:05:41;30.05;;;28.25;;
21569;SDS011;57598;50.888;4.746;2023-02-28T01:08:08;29.92;;;28.17;;
21569;SDS011;57598;50.888;4.746;2023-02-28T01:10:37;29.83;;;28.13;;
21569;SDS011;57598;50.888;4.746;2023-02-28T01:13:04;29.88;;;28.17;;
21569;SDS011;57598;50.888;4.746;2023-02-28T01:15:32;30.08;;;28.38;;
21569;SDS011;57598;50.888;4.746;2023-02-28T01:17:59;30.20;;;28.50;;
21569;SDS011;57598;50.888;4.746;2023-02-28T01:20:26;29.73;;;28.02;;
21569;SDS011;57598;50.888;4.746;2023-02-28T01:22:54;29.85;;;28.15;;
21569;SDS011;57598;50.888;4.746;2023-02-28T01:25:21;34.00;;;31.75;;
21569;SDS011;57598;50.888;4.746;2023-02-28T01:27:50;30.95;;;29.15;;
21569;SDS011;57598;50.888;4.746;2023-02-28T01:30:17;30.13;;;28.33;;
21569;SDS011;57598;50.888;4.746;2023-02-28T01:32:44;30.02;;;28.33;;
21569;SDS011;57598;50.888;4.746;2023-02-28T01:35:12;30.30;;;28.50;;
21569;SDS011;57598;50.888;4.746;2023-02-28T01:37:39;29.95;;;28.23;;
21569;SDS011;57598;50.888;4.746;2023-02-28T01:40:07;30.42;;;28.63;;
21569;SDS011;57598;50.888;4.746;2023-02-28T01:42:34;31.95;;;30.05;;
21569;SDS011;57598;50.888;4.746;2023-02-28T01:45:14;31.00;;;29.20;;
21569;SDS011;57598;50.888;4.746;2023-02-28T01:47:43;30.77;;;28.98;;
21569;SDS011;57598;50.888;4.746;2023-02-28T01:50:12;30.15;;;28.40;;
21569;SDS011;57598;50.888;4.746;2023-02-28T01:52:41;30.13;;;28.42;;
21569;SDS011;57598;50.888;4.746;2023-02-28T01:55:09;30.83;;;29.02;;
21569;SDS011;57598;50.888;4.746;2023-02-28T01:57:38;30.48;;;28.67;;
21569;SDS011;57598;50.888;4.746;2023-02-28T02:00:09;30.95;;;29.15;;
21569;SDS011;57598;50.888;4.746;2023-02-28T02:02:40;30.98;;;29.17;;
21569;SDS011;57598;50.888;4.746;2023-02-28T02:05:10;31.50;;;29.70;;
21569;SDS011;57598;50.888;4.746;2023-02-28T02:07:38;31.35;;;29.55;;
21569;SDS011;57598;50.888;4.746;2023-02-28T02:10:10;32.20;;;30.30;;
21569;SDS011;57598;50.888;4.746;2023-02-28T02:12:47;31.50;;;29.70;;
21569;SDS011;57598;50.888;4.746;2023-02-28T02:15:22;31.05;;;29.25;;
21569;SDS011;57598;50.888;4.746;2023-02-28T02:17:51;31.25;;;29.45;;
21569;SDS011;57598;50.888;4.746;2023-02-28T02:25:53;31.75;;;29.92;;
21569;SDS011;57598;50.888;4.746;2023-02-28T02:28:30;31.75;;;29.95;;
21569;SDS011;57598;50.888;4.746;2023-02-28T02:31:12;33.03;;;31.13;;
21569;SDS011;57598;50.888;4.746;2023-02-28T02:34:06;31.33;;;29.52;;
21569;SDS011;57598;50.888;4.746;2023-02-28T02:36:36;31.80;;;29.92;;
21569;SDS011;57598;50.888;4.746;2023-02-28T02:39:06;32.43;;;30.53;;
21569;SDS011;57598;50.888;4.746;2023-02-28T02:41:37;31.77;;;29.95;;
21569;SDS011;57598;50.888;4.746;2023-02-28T02:44:07;32.47;;;30.58;;
21569;SDS011;57598;50.888;4.746;2023-02-28T02:46:38;32.35;;;30.45;;
21569;SDS011;57598;50.888;4.746;2023-02-28T02:49:08;32.50;;;30.60;;
21569;SDS011;57598;50.888;4.746;2023-02-28T02:51:36;33.35;;;31.45;;
21569;SDS011;57598;50.888;4.746;2023-02-28T02:54:05;32.40;;;30.50;;
21569;SDS011;57598;50.888;4.746;2023-02-28T02:56:35;32.47;;;30.58;;
21569;SDS011;57598;50.888;4.746;2023-02-28T02:59:04;32.45;;;30.55;;
21569;SDS011;57598;50.888;4.746;2023-02-28T03:01:31;32.67;;;30.67;;
21569;SDS011;57598;50.888;4.746;2023-02-28T03:04:00;32.30;;;30.40;;
21569;SDS011;57598;50.888;4.746;2023-02-28T03:06:29;32.10;;;30.20;;
21569;SDS011;57598;50.888;4.746;2023-02-28T03:08:57;33.97;;;31.88;;
21569;SDS011;57598;50.888;4.746;2023-02-28T03:11:24;32.42;;;30.52;;
21569;SDS011;57598;50.888;4.746;2023-02-28T03:13:53;32.53;;;30.63;;
21569;SDS011;57598;50.888;4.746;2023-02-28T03:16:35;32.78;;;30.88;;
21569;SDS011;57598;50.888;4.746;2023-02-28T03:19:06;32.85;;;30.90;;
21569;SDS011;57598;50.888;4.746;2023-02-28T03:21:40;33.15;;;31.15;;
21569;SDS011;57598;50.888;4.746;2023-02-28T03:24:10;32.80;;;30.90;;
21569;SDS011;57598;50.888;4.746;2023-02-28T03:26:39;32.08;;;30.17;;
21569;SDS011;57598;50.888;4.746;2023-02-28T03:29:10;32.75;;;30.85;;
21569;SDS011;57598;50.888;4.746;2023-02-28T03:31:43;32.50;;;30.60;;
21569;SDS011;57598;50.888;4.746;2023-02-28T03:34:12;32.50;;;30.60;;
21569;SDS011;57598;50.888;4.746;2023-02-28T03:36:44;32.42;;;30.52;;
21569;SDS011;57598;50.888;4.746;2023-02-28T03:39:13;32.63;;;30.73;;
21569;SDS011;57598;50.888;4.746;2023-02-28T03:41:42;32.30;;;30.40;;
21569;SDS011;57598;50.888;4.746;2023-02-28T03:44:13;32.88;;;30.98;;
21569;SDS011;57598;50.888;4.746;2023-02-28T03:46:44;35.40;;;33.30;;
21569;SDS011;57598;50.888;4.746;2023-02-28T03:49:14;34.67;;;32.58;;
21569;SDS011;57598;50.888;4.746;2023-02-28T03:51:44;33.23;;;31.23;;
21569;SDS011;57598;50.888;4.746;2023-02-28T03:54:14;35.00;;;32.90;;
21569;SDS011;57598;50.888;4.746;2023-02-28T03:56:43;33.08;;;31.17;;
21569;SDS011;57598;50.888;4.746;2023-02-28T03:59:13;33.17;;;31.25;;
21569;SDS011;57598;50.888;4.746;2023-02-28T04:01:42;34.42;;;32.42;;
21569;SDS011;57598;50.888;4.746;2023-02-28T04:04:19;35.08;;;33.03;;
21569;SDS011;57598;50.888;4.746;2023-02-28T04:07:06;35.03;;;32.92;;
21569;SDS011;57598;50.888;4.746;2023-02-28T04:09:37;34.80;;;32.70;;
21569;SDS011;57598;50.888;4.746;2023-02-28T04:14:44;35.20;;;33.10;;
21569;SDS011;57598;50.888;4.746;2023-02-28T04:17:12;34.30;;;32.30;;
21569;SDS011;57598;50.888;4.746;2023-02-28T04:19:55;35.75;;;33.67;;
21569;SDS011;57598;50.888;4.746;2023-02-28T04:22:27;34.72;;;32.72;;
21569;SDS011;57598;50.888;4.746;2023-02-28T04:24:55;35.28;;;33.17;;
21569;SDS011;57598;50.888;4.746;2023-02-28T04:27:24;36.10;;;34.00;;
21569;SDS011;57598;50.888;4.746;2023-02-28T04:29:51;34.25;;;32.25;;
21569;SDS011;57598;50.888;4.746;2023-02-28T04:32:20;34.78;;;32.75;;
21569;SDS011;57598;50.888;4.746;2023-02-28T04:34:48;35.25;;;33.15;;
21569;SDS011;57598;50.888;4.746;2023-02-28T04:37:16;35.05;;;32.97;;
21569;SDS011;57598;50.888;4.746;2023-02-28T04:39:45;34.20;;;32.20;;
21569;SDS011;57598;50.888;4.746;2023-02-28T04:42:13;36.22;;;34.03;;
21569;SDS011;57598;50.888;4.746;2023-02-28T04:44:41;34.78;;;32.67;;
21569;SDS011;57598;50.888;4.746;2023-02-28T04:47:08;35.20;;;33.10;;
21569;SDS011;57598;50.888;4.746;2023-02-28T04:49:37;34.67;;;32.67;;
21569;SDS011;57598;50.888;4.746;2023-02-28T04:52:06;34.55;;;32.55;;
21569;SDS011;57598;50.888;4.746;2023-02-28T04:54:35;34.08;;;32.08;;
21569;SDS011;57598;50.888;4.746;2023-02-28T04:57:05;34.28;;;32.28;;
21569;SDS011;57598;50.888;4.746;2023-02-28T04:59:33;34.58;;;32.58;;
21569;SDS011;57598;50.888;4.746;2023-02-28T05:02:01;34.88;;;32.83;;
21569;SDS011;57598;50.888;4.746;2023-02-28T05:04:32;34.33;;;32.33;;
21569;SDS011;57598;50.888;4.746;2023-02-28T05:07:00;34.67;;;32.67;;
21569;SDS011;57598;50.888;4.746;2023-02-28T05:09:28;34.38;;;32.38;;
21569;SDS011;57598;50.888;4.746;2023-02-28T05:11:56;35.78;;;33.67;;
21569;SDS011;57598;50.888;4.746;2023-02-28T05:14:25;35.40;;;33.30;;
21569;SDS011;57598;50.888;4.746;2023-02-28T05:16:52;36.42;;;34.33;;
21569;SDS011;57598;50.888;4.746;2023-02-28T05:19:20;37.28;;;35.03;;
21569;SDS011;57598;50.888;4.746;2023-02-28T05:21:49;34.95;;;32.95;;
21569;SDS011;57598;50.888;4.746;2023-02-28T05:24:17;36.55;;;34.35;;
21569;SDS011;57598;50.888;4.746;2023-02-28T05:26:48;38.95;;;36.45;;
21569;SDS011;57598;50.888;4.746;2023-02-28T05:29:16;35.67;;;33.58;;
21569;SDS011;57598;50.888;4.746;2023-02-28T05:31:46;35.53;;;33.47;;
21569;SDS011;57598;50.888;4.746;2023-02-28T05:34:14;36.23;;;34.13;;
21569;SDS011;57598;50.888;4.746;2023-02-28T05:36:43;36.10;;;33.90;;
21569;SDS011;57598;50.888;4.746;2023-02-28T05:39:24;37.00;;;34.70;;
21569;SDS011;57598;50.888;4.746;2023-02-28T05:42:07;36.20;;;34.10;;
21569;SDS011;57598;50.888;4.746;2023-02-28T05:44:47;38.25;;;35.75;;
21569;SDS011;57598;50.888;4.746;2023-02-28T05:56:21;35.30;;;33.30;;
21569;SDS011;57598;50.888;4.746;2023-02-28T05:58:49;38.17;;;35.97;;
21569;SDS011;57598;50.888;4.746;2023-02-28T06:01:37;36.70;;;34.60;;
21569;SDS011;57598;50.888;4.746;2023-02-28T06:04:17;37.42;;;35.22;;
21569;SDS011;57598;50.888;4.746;2023-02-28T06:06:50;40.95;;;38.20;;
21569;SDS011;57598;50.888;4.746;2023-02-28T06:09:18;37.72;;;35.53;;
21569;SDS011;57598;50.888;4.746;2023-02-28T06:12:05;40.25;;;37.70;;
21569;SDS011;57598;50.888;4.746;2023-02-28T06:17:11;37.00;;;34.90;;
21569;SDS011;57598;50.888;4.746;2023-02-28T06:28:30;38.28;;;36.08;;
21569;SDS011;57598;50.888;4.746;2023-02-28T06:31:07;39.30;;;36.90;;
21569;SDS011;57598;50.888;4.746;2023-02-28T06:33:37;38.45;;;36.25;;
21569;SDS011;57598;50.888;4.746;2023-02-28T06:36:11;37.22;;;35.13;;
21569;SDS011;57598;50.888;4.746;2023-02-28T06:38:42;36.38;;;34.28;;
21569;SDS011;57598;50.888;4.746;2023-02-28T06:41:10;37.40;;;35.22;;
21569;SDS011;57598;50.888;4.746;2023-02-28T06:43:42;37.00;;;34.90;;
21569;SDS011;57598;50.888;4.746;2023-02-28T06:46:11;36.97;;;34.88;;
21569;SDS011;57598;50.888;4.746;2023-02-28T06:48:40;37.22;;;34.97;;
21569;SDS011;57598;50.888;4.746;2023-02-28T06:51:09;36.90;;;34.80;;
21569;SDS011;57598;50.888;4.746;2023-02-28T06:53:38;36.65;;;34.47;;
21569;SDS011;57598;50.888;4.746;2023-02-28T06:56:08;35.88;;;33.80;;
21569;SDS011;57598;50.888;4.746;2023-02-28T06:58:38;34.50;;;32.60;;
21569;SDS011;57598;50.888;4.746;2023-02-28T07:01:09;39.42;;;36.47;;
21569;SDS011;57598;50.888;4.746;2023-02-28T07:03:38;35.78;;;33.67;;
21569;SDS011;57598;50.888;4.746;2023-02-28T07:06:06;34.42;;;32.53;;
21569;SDS011;57598;50.888;4.746;2023-02-28T07:08:35;35.25;;;33.25;;
21569;SDS011;57598;50.888;4.746;2023-02-28T07:11:05;34.60;;;32.60;;
21569;SDS011;57598;50.888;4.746;2023-02-28T07:13:34;34.28;;;32.38;;
21569;SDS011;57598;50.888;4.746;2023-02-28T07:16:05;34.80;;;32.80;;
21569;SDS011;57598;50.888;4.746;2023-02-28T07:18:36;36.03;;;33.92;;
21569;SDS011;57598;50.888;4.746;2023-02-28T07:21:05;34.30;;;32.30;;
21569;SDS011;57598;50.888;4.746;2023-02-28T07:23:33;34.60;;;32.67;;
21569;SDS011;57598;50.888;4.746;2023-02-28T07:26:05;34.33;;;32.42;;
21569;SDS011;57598;50.888;4.746;2023-02-28T07:28:43;33.70;;;31.80;;
21569;SDS011;57598;50.888;4.746;2023-02-28T07:31:26;34.53;;;32.33;;
21569;SDS011;57598;50.888;4.746;2023-02-28T07:33:58;32.97;;;31.07;;
21569;SDS011;57598;50.888;4.746;2023-02-28T07:36:26;32.75;;;30.95;;
21569;SDS011;57598;50.888;4.746;2023-02-28T07:38:56;32.23;;;30.43;;
21569;SDS011;57598;50.888;4.746;2023-02-28T07:41:26;35.80;;;33.63;;
21569;SDS011;57598;50.888;4.746;2023-02-28T07:43:55;29.95;;;28.25;;
21569;SDS011;57598;50.888;4.746;2023-02-28T07:46:26;29.67;;;27.98;;
21569;SDS011;57598;50.888;4.746;2023-02-28T07:49:02;28.90;;;27.25;;
21569;SDS011;57598;50.888;4.746;2023-02-28T07:51:33;25.83;;;24.33;;
21569;SDS011;57598;50.888;4.746;2023-02-28T07:54:18;24.55;;;23.15;;
21569;SDS011;57598;50.888;4.746;2023-02-28T07:57:09;25.38;;;23.88;;
21569;SDS011;57598;50.888;4.746;2023-02-28T11:34:33;20.92;;;19.73;;
21569;SDS011;57598;50.888;4.746;2023-02-28T11:37:02;20.45;;;19.25;;
21569;SDS011;57598;50.888;4.746;2023-02-28T11:39:37;20.63;;;19.30;;
21569;SDS011;57598;50.888;4.746;2023-02-28T11:42:40;20.20;;;18.98;;
21569;SDS011;57598;50.888;4.746;2023-02-28T11:45:16;20.83;;;19.63;;
21569;SDS011;57598;50.888;4.746;2023-02-28T11:47:47;20.38;;;19.17;;
21569;SDS011;57598;50.888;4.746;2023-02-28T11:50:26;19.90;;;18.80;;
21569;SDS011;57598;50.888;4.746;2023-02-28T11:53:01;21.27;;;19.63;;
21569;SDS011;57598;50.888;4.746;2023-02-28T11:55:30;20.83;;;19.63;;
21569;SDS011;57598;50.888;4.746;2023-02-28T11:58:12;21.08;;;19.85;;
21569;SDS011;57598;50.888;4.746;2023-02-28T12:00:50;20.13;;;18.92;;
21569;SDS011;57598;50.888;4.746;2023-02-28T12:03:27;19.63;;;18.52;;
21569;SDS011;57598;50.888;4.746;2023-02-28T12:06:00;20.63;;;19.42;;
21569;SDS011;57598;50.888;4.746;2023-02-28T12:08:39;20.40;;;19.20;;
21569;SDS011;57598;50.888;4.746;2023-02-28T12:11:10;20.38;;;19.17;;
21569;SDS011;57598;50.888;4.746;2023-02-28T12:13:44;20.95;;;19.52;;
21569;SDS011;57598;50.888;4.746;2023-02-28T12:19:10;21.67;;;20.27;;
21569;SDS011;57598;50.888;4.746;2023-02-28T12:21:44;20.67;;;19.38;;
21569;SDS011;57598;50.888;4.746;2023-02-28T12:24:18;20.90;;;19.70;;
21569;SDS011;57598;50.888;4.746;2023-02-28T12:26:47;20.92;;;19.58;;
21569;SDS011;57598;50.888;4.746;2023-02-28T12:29:19;21.00;;;19.50;;
21569;SDS011;57598;50.888;4.746;2023-02-28T12:31:49;21.40;;;20.10;;
21569;SDS011;57598;50.888;4.746;2023-02-28T12:34:19;20.58;;;19.38;;
21569;SDS011;57598;50.888;4.746;2023-02-28T12:36:47;21.77;;;20.38;;
21569;SDS011;57598;50.888;4.746;2023-02-28T12:39:16;20.00;;;18.90;;
21569;SDS011;57598;50.888;4.746;2023-02-28T12:41:46;21.08;;;19.85;;
21569;SDS011;57598;50.888;4.746;2023-02-28T12:44:16;21.02;;;19.83;;
21569;SDS011;57598;50.888;4.746;2023-02-28T12:46:46;20.20;;;19.00;;
21569;SDS011;57598;50.888;4.746;2023-02-28T12:49:15;20.40;;;19.10;;
21569;SDS011;57598;50.888;4.746;2023-02-28T12:51:44;20.00;;;18.80;;
21569;SDS011;57598;50.888;4.746;2023-02-28T12:54:14;20.25;;;19.05;;
21569;SDS011;57598;50.888;4.746;2023-02-28T12:56:44;19.98;;;18.77;;
21569;SDS011;57598;50.888;4.746;2023-02-28T12:59:15;20.20;;;19.00;;
21569;SDS011;57598;50.888;4.746;2023-02-28T13:01:54;21.98;;;20.30;;
21569;SDS011;57598;50.888;4.746;2023-02-28T13:04:30;20.50;;;19.30;;
21569;SDS011;57598;50.888;4.746;2023-02-28T13:07:06;21.05;;;19.85;;
21569;SDS011;57598;50.888;4.746;2023-02-28T13:09:35;20.75;;;19.55;;
21569;SDS011;57598;50.888;4.746;2023-02-28T13:12:04;20.38;;;19.17;;
21569;SDS011;57598;50.888;4.746;2023-02-28T13:14:39;21.42;;;20.05;;
21569;SDS011;57598;50.888;4.746;2023-02-28T13:17:11;20.63;;;19.33;;
21569;SDS011;57598;50.888;4.746;2023-02-28T13:19:40;21.42;;;20.05;;
21569;SDS011;57598;50.888;4.746;2023-02-28T13:22:16;20.92;;;19.73;;
21569;SDS011;57598;50.888;4.746;2023-02-28T13:24:45;21.23;;;19.92;;
21569;SDS011;57598;50.888;4.746;2023-02-28T13:29:57;20.42;;;19.23;;
21569;SDS011;57598;50.888;4.746;2023-02-28T13:32:30;23.40;;;21.80;;
21569;SDS011;57598;50.888;4.746;2023-02-28T13:37:44;19.92;;;18.83;;
21569;SDS011;57598;50.888;4.746;2023-02-28T13:40:32;20.05;;;18.85;;
21569;SDS011;57598;50.888;4.746;2023-02-28T13:43:03;20.33;;;19.13;;
21569;SDS011;57598;50.888;4.746;2023-02-28T13:45:30;20.83;;;19.63;;
21569;SDS011;57598;50.888;4.746;2023-02-28T13:48:04;21.75;;;20.30;;
21569;SDS011;57598;50.888;4.746;2023-02-28T13:50:41;19.75;;;18.55;;
21569;SDS011;57598;50.888;4.746;2023-02-28T13:59:02;20.80;;;19.50;;
21569;SDS011;57598;50.888;4.746;2023-02-28T14:01:39;19.42;;;18.23;;
21569;SDS011;57598;50.888;4.746;2023-02-28T14:04:17;20.00;;;18.80;;
21569;SDS011;57598;50.888;4.746;2023-02-28T14:06:52;19.27;;;18.13;;
21569;SDS011;57598;50.888;4.746;2023-02-28T14:09:21;21.38;;;20.02;;
21569;SDS011;57598;50.888;4.746;2023-02-28T14:11:50;20.33;;;19.13;;
21569;SDS011;57598;50.888;4.746;2023-02-28T14:17:04;19.98;;;18.88;;
21569;SDS011;57598;50.888;4.746;2023-02-28T14:19:34;19.85;;;18.65;;
21569;SDS011;57598;50.888;4.746;2023-02-28T14:22:08;20.40;;;19.17;;
21569;SDS011;57598;50.888;4.746;2023-02-28T14:24:47;19.70;;;18.55;;
21569;SDS011;57598;50.888;4.746;2023-02-28T14:27:21;21.27;;;19.88;;
21569;SDS011;57598;50.888;4.746;2023-02-28T14:30:02;20.27;;;19.08;;
21569;SDS011;57598;50.888;4.746;2023-02-28T14:32:32;21.10;;;19.80;;
21569;SDS011;57598;50.888;4.746;2023-02-28T14:35:05;21.25;;;19.95;;
21569;SDS011;57598;50.888;4.746;2023-02-28T14:37:40;21.70;;;20.20;;
21569;SDS011;57598;50.888;4.746;2023-02-28T14:40:12;20.85;;;19.65;;
21569;SDS011;57598;50.888;4.746;2023-02-28T14:42:39;20.92;;;19.63;;
21569;SDS011;57598;50.888;4.746;2023-02-28T14:45:16;19.70;;;18.60;;
21569;SDS011;57598;50.888;4.746;2023-02-28T14:47:44;20.23;;;18.98;;
21569;SDS011;57598;50.888;4.746;2023-02-28T14:50:18;21.20;;;19.92;;
21569;SDS011;57598;50.888;4.746;2023-02-28T14:52:46;20.75;;;19.55;;
21569;SDS011;57598;50.888;4.746;2023-02-28T14:55:34;19.88;;;18.48;;
21569;SDS011;57598;50.888;4.746;2023-02-28T14:58:02;20.75;;;19.35;;
21569;SDS011;57598;50.888;4.746;2023-02-28T15:00:32;22.10;;;20.80;;
21569;SDS011;57598;50.888;4.746;2023-02-28T15:03:11;21.65;;;20.25;;
21569;SDS011;57598;50.888;4.746;2023-02-28T15:05:47;19.77;;;18.67;;
21569;SDS011;57598;50.888;4.746;2023-02-28T15:08:18;21.55;;;20.25;;
21569;SDS011;57598;50.888;4.746;2023-02-28T15:10:49;21.15;;;19.77;;
21569;SDS011;57598;50.888;4.746;2023-02-28T15:13:18;20.90;;;19.60;;
21569;SDS011;57598;50.888;4.746;2023-02-28T15:15:47;21.10;;;19.70;;
21569;SDS011;57598;50.888;4.746;2023-02-28T15:18:16;19.42;;;18.33;;
21569;SDS011;57598;50.888;4.746;2023-02-28T15:20:47;19.63;;;18.53;;
21569;SDS011;57598;50.888;4.746;2023-02-28T15:23:14;21.55;;;20.00;;
21569;SDS011;57598;50.888;4.746;2023-02-28T15:25:42;19.92;;;18.73;;
21569;SDS011;57598;50.888;4.746;2023-02-28T15:28:11;21.80;;;20.42;;
21569;SDS011;57598;50.888;4.746;2023-02-28T15:30:49;21.23;;;19.95;;
21569;SDS011;57598;50.888;4.746;2023-02-28T15:33:18;21.50;;;20.10;;
21569;SDS011;57598;50.888;4.746;2023-02-28T15:35:47;21.58;;;20.27;;
21569;SDS011;57598;50.888;4.746;2023-02-28T15:38:15;21.63;;;20.33;;
21569;SDS011;57598;50.888;4.746;2023-02-28T15:40:43;21.42;;;20.08;;
21569;SDS011;57598;50.888;4.746;2023-02-28T15:43:19;21.40;;;20.00;;
21569;SDS011;57598;50.888;4.746;2023-02-28T15:48:18;20.88;;;19.48;;
21569;SDS011;57598;50.888;4.746;2023-02-28T15:50:48;20.48;;;18.88;;
21569;SDS011;57598;50.888;4.746;2023-02-28T16:05:24;20.45;;;19.13;;
21569;SDS011;57598;50.888;4.746;2023-02-28T17:21:01;17.75;;;16.65;;
21569;SDS011;57598;50.888;4.746;2023-02-28T17:31:46;16.80;;;15.80;;
21569;SDS011;57598;50.888;4.746;2023-02-28T17:34:13;17.25;;;16.25;;
21569;SDS011;57598;50.888;4.746;2023-02-28T17:36:44;17.45;;;16.45;;
21569;SDS011;57598;50.888;4.746;2023-02-28T17:39:16;17.75;;;16.73;;
21569;SDS011;57598;50.888;4.746;2023-02-28T17:55:06;18.42;;;17.35;;
21569;SDS011;57598;50.888;4.746;2023-02-28T17:57:37;18.80;;;17.70;;
21569;SDS011;57598;50.888;4.746;2023-02-28T18:02:49;18.55;;;17.45;;
21569;SDS011;57598;50.888;4.746;2023-02-28T18:07:58;17.80;;;16.80;;
21569;SDS011;57598;50.888;4.746;2023-02-28T18:13:30;17.40;;;16.40;;
21569;SDS011;57598;50.888;4.746;2023-02-28T18:23:50;17.95;;;16.95;;
21569;SDS011;57598;50.888;4.746;2023-02-28T18:26:17;18.27;;;17.17;;
21569;SDS011;57598;50.888;4.746;2023-02-28T18:28:47;18.10;;;17.10;;
21569;SDS011;57598;50.888;4.746;2023-02-28T18:33:57;18.55;;;17.45;;
21569;SDS011;57598;50.888;4.746;2023-02-28T18:36:25;16.73;;;15.73;;
21569;SDS011;57598;50.888;4.746;2023-02-28T18:39:09;17.42;;;16.42;;
21569;SDS011;57598;50.888;4.746;2023-02-28T18:41:37;18.25;;;16.90;;
21569;SDS011;57598;50.888;4.746;2023-02-28T18:44:08;17.30;;;16.30;;
21569;SDS011;57598;50.888;4.746;2023-02-28T18:55:50;17.90;;;16.90;;
21569;SDS011;57598;50.888;4.746;2023-02-28T18:58:20;18.40;;;17.30;;
21569;SDS011;57598;50.888;4.746;2023-02-28T19:00:49;18.17;;;17.17;;
21569;SDS011;57598;50.888;4.746;2023-02-28T19:03:19;18.48;;;17.40;;
21569;SDS011;57598;50.888;4.746;2023-02-28T19:05:59;18.65;;;17.55;;
21569;SDS011;57598;50.888;4.746;2023-02-28T19:08:26;17.90;;;16.90;;
21569;SDS011;57598;50.888;4.746;2023-02-28T19:10:54;17.73;;;16.73;;
21569;SDS011;57598;50.888;4.746;2023-02-28T19:13:21;17.80;;;16.80;;
21569;SDS011;57598;50.888;4.746;2023-02-28T19:16:04;18.30;;;17.27;;
21569;SDS011;57598;50.888;4.746;2023-02-28T19:18:34;18.77;;;17.48;;
21569;SDS011;57598;50.888;4.746;2023-02-28T19:21:04;18.00;;;17.00;;
21569;SDS011;57598;50.888;4.746;2023-02-28T19:23:32;18.77;;;17.67;;
21569;SDS011;57598;50.888;4.746;2023-02-28T19:26:06;19.97;;;18.47;;
21569;SDS011;57598;50.888;4.746;2023-02-28T19:28:36;18.58;;;17.48;;
21569;SDS011;57598;50.888;4.746;2023-02-28T19:31:08;19.80;;;18.60;;
21569;SDS011;57598;50.888;4.746;2023-02-28T19:33:37;19.25;;;18.15;;
21569;SDS011;57598;50.888;4.746;2023-02-28T19:36:05;21.05;;;19.80;;
21569;SDS011;57598;50.888;4.746;2023-02-28T19:38:36;21.50;;;20.30;;
21569;SDS011;57598;50.888;4.746;2023-02-28T19:41:07;19.75;;;18.65;;
21569;SDS011;57598;50.888;4.746;2023-02-28T19:43:35;21.13;;;19.83;;
21569;SDS011;57598;50.888;4.746;2023-02-28T19:46:10;20.58;;;19.38;;
21569;SDS011;57598;50.888;4.746;2023-02-28T19:48:57;19.33;;;18.13;;
21569;SDS011;57598;50.888;4.746;2023-02-28T19:51:40;18.38;;;17.33;;
21569;SDS011;57598;50.888;4.746;2023-02-28T19:54:20;19.52;;;18.42;;
21569;SDS011;57598;50.888;4.746;2023-02-28T19:59:50;19.42;;;18.23;;
21569;SDS011;57598;50.888;4.746;2023-02-28T20:02:25;18.30;;;17.20;;
21569;SDS011;57598;50.888;4.746;2023-02-28T20:04:55;20.48;;;19.25;;
21569;SDS011;57598;50.888;4.746;2023-02-28T20:16:58;18.75;;;17.65;;
21569;SDS011;57598;50.888;4.746;2023-02-28T20:19:30;18.55;;;17.45;;
21569;SDS011;57598;50.888;4.746;2023-02-28T20:22:00;20.25;;;18.95;;
21569;SDS011;57598;50.888;4.746;2023-02-28T20:24:41;19.35;;;18.25;;
21569;SDS011;57598;50.888;4.746;2023-02-28T20:27:21;20.08;;;18.88;;
21569;SDS011;57598;50.888;4.746;2023-02-28T20:29:49;20.30;;;19.02;;
21569;SDS011;57598;50.888;4.746;2023-02-28T20:32:24;19.52;;;18.33;;
21569;SDS011;57598;50.888;4.746;2023-02-28T20:34:55;18.95;;;17.85;;
21569;SDS011;57598;50.888;4.746;2023-02-28T20:37:23;20.80;;;19.60;;
21569;SDS011;57598;50.888;4.746;2023-02-28T20:40:09;20.95;;;19.65;;
21569;SDS011;57598;50.888;4.746;2023-02-28T20:42:40;20.10;;;18.80;;
21569;SDS011;57598;50.888;4.746;2023-02-28T20:45:10;20.55;;;19.35;;
21569;SDS011;57598;50.888;4.746;2023-02-28T20:47:45;20.45;;;19.13;;
21569;SDS011;57598;50.888;4.746;2023-02-28T20:50:15;18.65;;;17.55;;
21569;SDS011;57598;50.888;4.746;2023-02-28T20:52:54;18.95;;;17.85;;
21569;SDS011;57598;50.888;4.746;2023-02-28T20:55:28;19.02;;;17.92;;
21569;SDS011;57598;50.888;4.746;2023-02-28T20:57:57;19.43;;;18.23;;
21569;SDS011;57598;50.888;4.746;2023-02-28T21:00:26;19.52;;;18.35;;
21569;SDS011;57598;50.888;4.746;2023-02-28T21:03:06;18.60;;;17.50;;
21569;SDS011;57598;50.888;4.746;2023-02-28T21:05:43;18.15;;;17.15;;
21569;SDS011;57598;50.888;4.746;2023-02-28T21:08:12;18.98;;;17.88;;
21569;SDS011;57598;50.888;4.746;2023-02-28T21:10:40;18.90;;;17.80;;
21569;SDS011;57598;50.888;4.746;2023-02-28T21:13:16;21.25;;;19.75;;
21569;SDS011;57598;50.888;4.746;2023-02-28T21:16:05;19.42;;;18.23;;
21569;SDS011;57598;50.888;4.746;2023-02-28T21:18:38;19.98;;;18.67;;
21569;SDS011;57598;50.888;4.746;2023-02-28T21:21:22;18.50;;;17.40;;
21569;SDS011;57598;50.888;4.746;2023-02-28T21:23:54;18.73;;;17.63;;
21569;SDS011;57598;50.888;4.746;2023-02-28T21:26:26;18.95;;;17.85;;
21569;SDS011;57598;50.888;4.746;2023-02-28T21:28:55;19.13;;;18.02;;
21569;SDS011;57598;50.888;4.746;2023-02-28T21:31:25;19.08;;;17.98;;
21569;SDS011;57598;50.888;4.746;2023-02-28T21:34:02;18.63;;;17.52;;
21569;SDS011;57598;50.888;4.746;2023-02-28T21:39:41;18.65;;;17.55;;